Time;durP1;ratioP1;P1;durP2;ratioP2;P2;SDS_P1;SDS_P2;PMS_P1;PMS_P2;Temp;Humidity;BMP_temperature;BMP_pressure;BME280_temperature;BME280_humidity;BME280_pressure;Samples;Min_cycle;Max_cycle;Signal;HPM_P1;HPM_P2
2022/12/19 16:44:01;;;;;;;;;;;;;;;;;;7309508;19;20245;-81
2022/12/19 16:46:29;;;;;;;;;;;;;;;;;;7346486;19;20240;-77
2022/12/19 16:48:54;;;;;;;;;;;;;;;;;;7360983;19;20433;-77
2022/12/19 16:51:20;;;;;;;;;;;;;;;;;;7368610;19;20270;-76
2022/12/19 16:53:45;;;;;;;;;;;;;;;;;;7359914;19;19974;-80
2022/12/19 16:56:10;;;;;;;;;;;;;;;;;;7367510;19;20371;-80
2022/12/19 16:58:35;;;;;;;;;;;;;;;;;;7367690;19;19998;-79
2022/12/19 17:01:00;;;;;;;;;;;;;;;;;;7370077;19;19982;-80
2022/12/19 17:03:26;;;;;;;;;;;;;;;;;;7357875;19;19985;-77
2022/12/19 17:05:51;;;;;;;;;;;;;;;;;;7360421;19;20725;-76
2022/12/19 17:08:16;;;;;;;;;;;;;;;;;;7360348;19;19922;-78
2022/12/19 17:10:41;;;;;;;;;;;;;;;;;;7366867;19;19922;-77
2022/12/19 17:15:38;;;;;;;;;;;;;;;;;;7337088;19;20350;-77
2022/12/19 17:18:03;;;;;;;;;;;;;;;;;;7368737;19;19998;-78
2022/12/19 17:20:28;;;;;;;;;;;;;;;;;;7365166;19;20040;-77
2022/12/19 17:22:53;;;;;;;;;;;;;;;;;;7362105;19;19911;-80
2022/12/19 17:25:18;;;;;;;;;;;;;;;;;;7361282;19;19923;-77
2022/12/19 17:27:44;;;;;;;;;;;;;;;;;;7363341;19;19919;-77
2022/12/19 17:30:09;;;;;;;;;;;;;;;;;;7367454;19;19919;-79
2022/12/19 17:32:34;;;;;;;;;;;;;;;;;;7363531;19;19922;-79
2022/12/19 17:34:59;;;;;;;;;;;;;;;;;;7365651;19;20834;-80
2022/12/19 17:37:24;;;;;;;;;;;;;;;;;;7359985;19;19979;-77
2022/12/19 17:39:49;;;;;;;;;;;;;;;;;;7338348;19;19940;-79
2022/12/19 17:42:14;;;;;;;;;;;;;;;;;;7362044;19;20240;-77
2022/12/19 17:44:39;;;;;;;;;;;;;;;;;;7345294;19;20170;-81
2022/12/19 17:47:04;;;;;;;;;;;;;;;;;;7361096;19;19915;-78
2022/12/19 17:49:30;;;;;;;;;;;;;;;;;;7366992;19;19919;-81
2022/12/19 17:51:55;;;;;;;;;;;;;;;;;;7337136;19;20029;-81
2022/12/19 17:54:20;;;;;;;;;;;;;;;;;;7342111;19;19918;-76
2022/12/19 17:56:45;;;;;;;;;;;;;;;;;;7348487;19;19933;-78
2022/12/19 17:59:10;;;;;;;;;;;;;;;;;;7353373;19;19915;-79
2022/12/19 18:01:35;;;;;;;;;;;;;;;;;;7349648;19;19919;-81
2022/12/19 18:04:01;;;;;;;;;;;;;;;;;;7366383;19;19945;-78
2022/12/19 18:06:26;;;;;;;;;;;;;;;;;;7353134;19;19919;-79
2022/12/19 18:08:51;;;;;;;;;;;;;;;;;;7359431;19;20443;-80
2022/12/19 18:11:17;;;;;;;;;;;;;;;;;;7362731;19;19925;-80
2022/12/19 18:13:43;;;;;;;;;;;;;;;;;;7344839;19;20002;-80
2022/12/19 18:16:08;;;;;;;;;;;;;;;;;;7270823;19;19964;-81
2022/12/19 18:18:33;;;;;;;;;;;;;;;;;;7245534;19;20579;-81
2022/12/19 18:20:58;;;;;;;;;;;;;;;;;;7250531;19;19962;-81
2022/12/19 18:23:23;;;;;;;;;;;;;;;;;;7247895;19;19955;-81
2022/12/19 18:25:48;;;;;;;;;;;;;;;;;;7246683;19;19923;-82
2022/12/19 18:28:14;;;;;;;;;;;;;;;;;;7253594;19;19931;-80
2022/12/19 18:30:39;;;;;;;;;;;;;;;;;;7265161;19;19925;-79
2022/12/19 18:33:04;;;;;;;;;;;;;;;;;;7263837;19;20359;-81
2022/12/19 18:35:29;;;;;;;;;;;;;;;;;;7264748;19;19922;-79
2022/12/19 18:37:54;;;;;;;;;;;;;;;;;;7254816;19;20431;-81
2022/12/19 18:40:19;;;;;;;;;;;;;;;;;;7260651;19;19927;-80
2022/12/19 18:42:45;;;;;;;;;;;;;;;;;;7272586;19;20130;-80
2022/12/19 18:45:10;;;;;;;;;;;;;;;;;;7264529;19;20414;-81
2022/12/19 18:47:35;;;;;;;;;;;;;;;;;;7271361;19;19919;-79
2022/12/19 18:50:00;;;;;;;;;;;;;;;;;;7270525;19;20347;-81
2022/12/19 18:52:25;;;;;;;;;;;;;;;;;;7270508;19;20413;-80
2022/12/19 18:54:50;;;;;;;;;;;;;;;;;;7255920;19;19934;-80
2022/12/19 18:57:15;;;;;;;;;;;;;;;;;;7262752;19;19956;-81
2022/12/19 18:59:40;;;;;;;;;;;;;;;;;;7257803;19;20261;-80
2022/12/19 19:02:05;;;;;;;;;;;;;;;;;;7264726;19;20387;-79
2022/12/19 19:04:31;;;;;;;;;;;;;;;;;;7267062;19;19915;-81
2022/12/19 19:06:56;;;;;;;;;;;;;;;;;;7261707;19;19923;-83
2022/12/19 19:09:21;;;;;;;;;;;;;;;;;;7272213;19;19922;-82
2022/12/19 19:11:46;;;;;;;;;;;;;;;;;;7263546;19;20431;-83
2022/12/19 19:14:11;;;;;;;;;;;;;;;;;;7257496;19;20818;-82
2022/12/19 19:16:37;;;;;;;;;;;;;;;;;;7358124;19;19971;-81
2022/12/19 19:19:02;;;;;;;;;;;;;;;;;;7368544;19;19923;-77
2022/12/19 19:21:27;;;;;;;;;;;;;;;;;;7366680;19;20229;-77
2022/12/19 19:23:53;;;;;;;;;;;;;;;;;;7352031;19;19923;-80
2022/12/19 19:26:18;;;;;;;;;;;;;;;;;;7363003;19;19948;-79
2022/12/19 19:28:43;;;;;;;;;;;;;;;;;;7359329;19;19926;-79
2022/12/19 19:31:08;;;;;;;;;;;;;;;;;;7360331;19;19915;-81
2022/12/19 19:33:34;;;;;;;;;;;;;;;;;;7365123;19;19943;-78
2022/12/19 19:35:59;;;;;;;;;;;;;;;;;;7363162;19;19923;-78
2022/12/19 19:38:24;;;;;;;;;;;;;;;;;;7349012;19;20669;-81
2022/12/19 19:40:49;;;;;;;;;;;;;;;;;;7361222;19;19922;-80
2022/12/19 19:43:14;;;;;;;;;;;;;;;;;;7351232;19;19970;-78
2022/12/19 19:45:39;;;;;;;;;;;;;;;;;;7335951;19;20332;-80
2022/12/19 19:48:05;;;;;;;;;;;;;;;;;;7356724;19;20234;-82
2022/12/19 19:50:30;;;;;;;;;;;;;;;;;;7365479;19;19923;-79
2022/12/19 19:52:56;;;;;;;;;;;;;;;;;;7367400;19;20004;-81
2022/12/19 19:55:21;;;;;;;;;;;;;;;;;;7366823;19;20312;-79
2022/12/19 19:57:46;;;;;;;;;;;;;;;;;;7358941;19;20420;-81
2022/12/19 20:00:11;;;;;;;;;;;;;;;;;;7322933;19;19943;-79
2022/12/19 20:02:36;;;;;;;;;;;;;;;;;;7363727;19;19915;-78
2022/12/19 20:05:01;;;;;;;;;;;;;;;;;;7340804;19;20675;-81
2022/12/19 20:07:26;;;;;;;;;;;;;;;;;;7360704;19;19935;-78
2022/12/19 20:09:51;;;;;;;;;;;;;;;;;;7364831;19;19918;-80
2022/12/19 20:12:16;;;;;;;;;;;;;;;;;;7355165;19;20312;-79
2022/12/19 20:14:42;;;;;;;;;;;;;;;;;;7360386;19;20280;-80
2022/12/19 20:17:07;;;;;;;;;;;;;;;;;;7367619;19;19935;-81
2022/12/19 20:19:32;;;;;;;;;;;;;;;;;;7370971;19;19923;-79
2022/12/19 20:21:59;;;;;;;;;;;;;;;;;;7367755;19;19926;-80
2022/12/19 20:24:24;;;;;;;;;;;;;;;;;;7356321;19;19947;-79
2022/12/19 20:26:49;;;;;;;;;;;;;;;;;;7323965;19;19979;-82
2022/12/19 20:29:14;;;;;;;;;;;;;;;;;;7352617;19;20215;-82
2022/12/19 20:31:39;;;;;;;;;;;;;;;;;;7348620;19;19922;-80
2022/12/19 20:34:04;;;;;;;;;;;;;;;;;;7345434;19;19911;-80
2022/12/19 20:36:29;;;;;;;;;;;;;;;;;;7361696;19;19988;-80
2022/12/19 20:38:54;;;;;;;;;;;;;;;;;;7349506;19;19925;-79
2022/12/19 20:41:20;;;;;;;;;;;;;;;;;;7360867;19;19919;-81
2022/12/19 20:43:45;;;;;;;;;;;;;;;;;;7353268;19;19925;-78
2022/12/19 20:46:10;;;;;;;;;;;;;;;;;;7359776;19;19922;-79
2022/12/19 20:48:35;;;;;;;;;;;;;;;;;;7363503;19;19966;-81
2022/12/19 20:51:00;;;;;;;;;;;;;;;;;;7361107;19;19918;-79
2022/12/19 20:53:25;;;;;;;;;;;;;;;;;;7360282;19;19919;-79
2022/12/19 20:55:50;;;;;;;;;;;;;;;;;;7360741;19;20245;-81
2022/12/19 20:58:15;;;;;;;;;;;;;;;;;;7354901;19;19926;-77
2022/12/19 21:00:41;;;;;;;;;;;;;;;;;;7356160;19;19998;-78
2022/12/19 21:03:06;;;;;;;;;;;;;;;;;;7360147;19;19922;-77
2022/12/19 21:05:31;;;;;;;;;;;;;;;;;;7360073;19;20341;-80
2022/12/19 21:07:56;;;;;;;;;;;;;;;;;;7357174;19;19918;-78
2022/12/19 21:10:21;;;;;;;;;;;;;;;;;;7364047;19;19927;-77
2022/12/19 21:12:46;;;;;;;;;;;;;;;;;;7359771;19;19922;-79
2022/12/19 21:15:11;;;;;;;;;;;;;;;;;;7359144;19;20264;-77
2022/12/19 21:17:36;;;;;;;;;;;;;;;;;;7364673;19;20745;-79
2022/12/19 21:20:01;;;;;;;;;;;;;;;;;;7359196;19;19919;-80
2022/12/19 21:22:26;;;;;;;;;;;;;;;;;;7366274;19;20010;-81
2022/12/19 21:24:51;;;;;;;;;;;;;;;;;;7355692;19;19947;-80
2022/12/19 21:27:17;;;;;;;;;;;;;;;;;;7359466;19;19965;-80
2022/12/19 21:29:42;;;;;;;;;;;;;;;;;;7359663;19;19922;-79
2022/12/19 21:32:07;;;;;;;;;;;;;;;;;;7362237;19;19919;-81
2022/12/19 21:34:32;;;;;;;;;;;;;;;;;;7362134;19;20576;-78
2022/12/19 21:36:57;;;;;;;;;;;;;;;;;;7361349;19;19942;-78
2022/12/19 21:39:24;;;;;;;;;;;;;;;;;;7358969;19;19930;-80
2022/12/19 21:41:49;;;;;;;;;;;;;;;;;;7361139;19;19915;-81
2022/12/19 21:44:14;;;;;;;;;;;;;;;;;;7358352;19;20001;-82
2022/12/19 21:46:39;;;;;;;;;;;;;;;;;;7356469;19;20022;-80
2022/12/19 21:49:05;;;;;;;;;;;;;;;;;;7357633;19;19971;-78
2022/12/19 21:51:30;;;;;;;;;;;;;;;;;;7364286;19;20474;-82
2022/12/19 21:53:55;;;;;;;;;;;;;;;;;;7356157;19;19922;-80
2022/12/19 21:56:20;;;;;;;;;;;;;;;;;;7362905;19;20358;-79
2022/12/19 21:58:46;;;;;;;;;;;;;;;;;;7361507;19;19927;-83
2022/12/19 22:01:11;;;;;;;;;;;;;;;;;;7358852;19;19938;-80
2022/12/19 22:03:36;;;;;;;;;;;;;;;;;;7367332;19;19923;-79
2022/12/19 22:06:01;;;;;;;;;;;;;;;;;;7331231;19;19925;-82
2022/12/19 22:08:26;;;;;;;;;;;;;;;;;;7360879;19;20006;-80
2022/12/19 22:10:51;;;;;;;;;;;;;;;;;;7353370;19;19914;-81
2022/12/19 22:13:16;;;;;;;;;;;;;;;;;;7360516;19;20272;-79
2022/12/19 22:15:41;;;;;;;;;;;;;;;;;;7358369;19;19914;-78
2022/12/19 22:18:06;;;;;;;;;;;;;;;;;;7335682;19;19942;-80
2022/12/19 22:20:32;;;;;;;;;;;;;;;;;;7357984;19;19994;-80
2022/12/19 22:22:57;;;;;;;;;;;;;;;;;;7361826;19;19948;-78
2022/12/19 22:25:22;;;;;;;;;;;;;;;;;;7356103;19;19911;-79
2022/12/19 22:27:47;;;;;;;;;;;;;;;;;;7356899;19;21007;-79
2022/12/19 22:30:13;;;;;;;;;;;;;;;;;;7341051;19;19949;-80
2022/12/19 22:32:38;;;;;;;;;;;;;;;;;;7353708;19;20664;-79
2022/12/19 22:35:03;;;;;;;;;;;;;;;;;;7352677;19;19937;-79
2022/12/19 22:37:28;;;;;;;;;;;;;;;;;;7358581;19;19925;-79
2022/12/19 22:39:54;;;;;;;;;;;;;;;;;;7351953;19;19922;-81
2022/12/19 22:42:19;;;;;;;;;;;;;;;;;;7360710;19;19919;-79
2022/12/19 22:44:45;;;;;;;;;;;;;;;;;;7360513;19;19915;-81
2022/12/19 22:47:10;;;;;;;;;;;;;;;;;;7361039;19;19951;-79
2022/12/19 22:49:35;;;;;;;;;;;;;;;;;;7359431;19;19978;-79
2022/12/19 22:52:00;;;;;;;;;;;;;;;;;;7364214;19;19978;-78
2022/12/19 22:54:25;;;;;;;;;;;;;;;;;;7350129;19;19925;-81
2022/12/19 22:56:51;;;;;;;;;;;;;;;;;;7339517;19;20313;-80
2022/12/19 22:59:16;;;;;;;;;;;;;;;;;;7360266;19;19957;-82
2022/12/19 23:01:41;;;;;;;;;;;;;;;;;;7308271;19;20420;-81
2022/12/19 23:04:06;;;;;;;;;;;;;;;;;;7344823;19;19938;-79
2022/12/19 23:06:31;;;;;;;;;;;;;;;;;;7347832;19;19925;-80
2022/12/19 23:08:56;;;;;;;;;;;;;;;;;;7340770;19;20013;-81
2022/12/19 23:11:21;;;;;;;;;;;;;;;;;;7354135;19;19919;-81
2022/12/19 23:13:46;;;;;;;;;;;;;;;;;;7371551;19;20780;-78
2022/12/19 23:16:14;;;;;;;;;;;;;;;;;;7359464;19;20328;-81
